Time;durP1;ratioP1;P1;durP2;ratioP2;P2;SDS_P1;SDS_P2;PMS_P1;PMS_P2;Temp;Humidity;BMP_temperature;BMP_pressure;BME280_temperature;BME280_humidity;BME280_pressure;Samples;Min_cycle;Max_cycle;Signal;HPM_P1;HPM_P2
2021/01/06 00:01:23;;;;;;;12.85;11.55;;;;;;;6.58;70.02;99612.50;4950690;28;98563;-68
2021/01/06 00:03:50;;;;;;;14.25;11.98;;;;;;;6.29;71.52;99606.81;4952175;28;97091;-68
2021/01/06 00:06:17;;;;;;;13.15;11.63;;;;;;;6.53;69.93;99598.91;4952544;28;97240;-68
2021/01/06 00:08:44;;;;;;;15.63;12.38;;;;;;;6.32;69.84;99595.50;4952795;28;98412;-68
2021/01/06 00:11:10;;;;;;;15.23;12.02;;;;;;;6.15;70.33;99606.56;4945403;28;98415;-68
2021/01/06 00:13:37;;;;;;;14.70;10.55;;;;;;;6.26;70.22;99609.53;4947725;28;96840;-68
2021/01/06 00:16:04;;;;;;;14.65;10.93;;;;;;;5.94;71.21;99608.28;4949022;28;96599;-68
2021/01/06 00:18:30;;;;;;;15.93;11.93;;;;;;;6.05;70.38;99607.84;4949490;28;97647;-68
2021/01/06 00:20:57;;;;;;;14.40;10.45;;;;;;;6.11;69.26;99602.41;4951328;28;98721;-68
2021/01/06 00:23:24;;;;;;;15.38;11.57;;;;;;;5.97;69.33;99615.09;4951840;28;96646;-68
2021/01/06 00:25:50;;;;;;;12.48;10.05;;;;;;;5.70;71.07;99610.13;4936663;28;96693;-68
2021/01/06 00:28:17;;;;;;;15.15;11.88;;;;;;;5.84;70.02;99612.13;4943798;28;98379;-68
2021/01/06 00:30:57;;;;;;;14.43;12.18;;;;;;;5.81;69.73;99616.59;4946354;28;97517;-68
2021/01/06 00:33:25;;;;;;;16.13;12.65;;;;;;;6.10;68.24;99618.84;4945809;28;96936;-68
2021/01/06 00:35:52;;;;;;;15.35;12.27;;;;;;;5.84;69.01;99621.63;4950006;28;96831;-68
2021/01/06 00:38:24;;;;;;;13.80;11.68;;;;;;;5.98;68.52;99616.78;4947410;28;98550;-67
2021/01/06 00:40:50;;;;;;;16.13;12.65;;;;;;;6.09;67.63;99617.19;4951200;28;98432;-68
2021/01/06 00:43:17;;;;;;;15.55;11.80;;;;;;;6.16;66.83;99617.75;4951818;28;96650;-68
2021/01/06 00:45:43;;;;;;;14.38;11.45;;;;;;;6.19;66.67;99618.47;4953766;28;96698;-68
2021/01/06 00:48:11;;;;;;;15.68;12.68;;;;;;;6.21;66.63;99616.66;4946609;28;97355;-68
2021/01/06 00:50:37;;;;;;;16.05;12.45;;;;;;;6.07;67.61;99629.31;4924887;28;99979;-68
2021/01/06 00:53:07;;;;;;;15.88;13.27;;;;;;;5.92;68.46;99624.78;4946611;28;96550;-68
2021/01/06 00:55:36;;;;;;;15.18;11.90;;;;;;;6.02;67.94;99633.88;4935997;28;96914;-68
2021/01/06 00:58:04;;;;;;;15.75;11.82;;;;;;;6.08;66.16;99638.78;4932473;28;98637;-68
2021/01/06 01:00:31;;;;;;;15.98;11.73;;;;;;;6.17;65.79;99638.38;4901130;28;98609;-68
2021/01/06 01:03:03;;;;;;;16.75;12.27;;;;;;;5.74;67.18;99650.44;4932400;28;96621;-69
2021/01/06 01:05:32;;;;;;;19.08;13.25;;;;;;;5.85;67.33;99644.00;4927522;28;96760;-68
2021/01/06 01:07:59;;;;;;;17.08;13.60;;;;;;;6.06;65.88;99648.34;4955368;28;98554;-68
2021/01/06 01:10:37;;;;;;;19.15;13.52;;;;;;;6.14;65.29;99641.13;4948299;28;98498;-68
2021/01/06 01:13:07;;;;;;;16.23;12.63;;;;;;;6.21;65.07;99647.72;4937271;28;96622;-69
2021/01/06 01:15:34;;;;;;;17.15;12.80;;;;;;;5.96;67.11;99652.19;4935885;28;96574;-69
2021/01/06 01:18:00;;;;;;;15.73;12.15;;;;;;;5.94;66.50;99662.63;4935958;28;98345;-69
2021/01/06 01:20:27;;;;;;;17.70;13.25;;;;;;;5.88;67.71;99657.66;4934737;28;98432;-69
2021/01/06 01:22:53;;;;;;;16.13;12.57;;;;;;;6.06;66.57;99668.19;4919527;28;96976;-69
2021/01/06 01:25:22;;;;;;;17.15;11.68;;;;;;;5.98;67.26;99671.09;4934278;28;96727;-69
2021/01/06 01:27:49;;;;;;;14.75;12.00;;;;;;;5.93;66.84;99657.50;4934383;28;98781;-69
2021/01/06 01:30:26;;;;;;;15.80;12.52;;;;;;;5.95;66.07;99651.38;4935469;28;98565;-68
2021/01/06 01:32:53;;;;;;;16.58;12.57;;;;;;;6.04;65.53;99656.16;4951157;28;97075;-69
2021/01/06 01:35:24;;;;;;;14.82;11.77;;;;;;;5.98;65.80;99658.16;4956185;28;96664;-69
2021/01/06 01:37:51;;;;;;;15.32;12.02;;;;;;;5.81;66.25;99657.97;4954249;28;98558;-69
2021/01/06 01:40:21;;;;;;;13.82;10.88;;;;;;;5.67;67.45;99661.94;4955754;28;98451;-69
2021/01/06 01:43:18;;;;;;;14.32;12.10;;;;;;;5.71;68.34;99663.50;4948090;28;96720;-69
2021/01/06 01:45:44;;;;;;;15.15;11.75;;;;;;;5.58;68.36;99646.78;4923702;28;97108;-69
2021/01/06 01:48:15;;;;;;;14.15;11.65;;;;;;;5.82;66.80;99649.31;4934600;28;98616;-69
2021/01/06 01:50:41;;;;;;;14.15;10.95;;;;;;;5.67;67.57;99646.41;4934899;28;97932;-69
2021/01/06 01:53:09;;;;;;;16.20;12.60;;;;;;;5.67;67.73;99651.59;4947456;28;96818;-69
2021/01/06 01:55:36;;;;;;;14.98;12.18;;;;;;;5.57;68.69;99642.50;4920888;28;97441;-69
2021/01/06 01:58:06;;;;;;;15.70;12.32;;;;;;;5.57;68.97;99642.50;4920234;28;98649;-70
2021/01/06 02:00:33;;;;;;;15.65;11.57;;;;;;;5.41;69.75;99651.75;4933498;28;100469;-70
2021/01/06 02:03:27;;;;;;;16.65;12.75;;;;;;;5.56;68.59;99651.19;4935170;28;97084;-70
2021/01/06 02:05:57;;;;;;;15.93;12.35;;;;;;;5.56;69.53;99646.00;4922307;28;97172;-70
2021/01/06 02:08:35;;;;;;;15.18;11.05;;;;;;;5.53;70.23;99648.69;4921944;28;98489;-70
2021/01/06 02:11:23;;;;;;;17.75;12.95;;;;;;;5.56;68.83;99642.59;4937816;28;98443;-69
2021/01/06 02:13:53;;;;;;;13.38;11.45;;;;;;;5.75;68.17;99634.03;4929046;28;98483;-70
2021/01/06 02:16:36;;;;;;;14.82;11.52;;;;;;;6.00;66.75;99633.06;4915020;28;96941;-70
2021/01/06 02:19:03;;;;;;;15.60;11.70;;;;;;;5.94;66.08;99633.31;4952409;28;98681;-70
2021/01/06 02:21:29;;;;;;;14.80;12.13;;;;;;;5.96;66.21;99636.69;4954322;28;98967;-69
2021/01/06 02:23:56;;;;;;;12.98;10.90;;;;;;;5.94;66.20;99643.66;4933364;28;96612;-69
2021/01/06 02:26:27;;;;;;;13.48;10.88;;;;;;;5.75;66.65;99635.75;4918799;28;96598;-69
2021/01/06 02:28:55;;;;;;;12.75;10.00;;;;;;;5.68;67.62;99630.00;4935240;28;99322;-70
2021/01/06 02:31:21;;;;;;;14.75;10.98;;;;;;;5.90;66.27;99635.16;4937354;28;98376;-70
2021/01/06 02:33:48;;;;;;;15.38;13.18;;;;;;;5.82;66.59;99633.78;4935738;28;96750;-70
2021/01/06 02:36:15;;;;;;;14.60;11.65;;;;;;;5.63;67.97;99642.25;4938034;28;97276;-70
2021/01/06 02:38:41;;;;;;;16.10;11.50;;;;;;;5.55;68.46;99646.91;4936342;28;98443;-70
2021/01/06 02:41:08;;;;;;;12.02;10.25;;;;;;;5.53;69.17;99648.69;4937111;28;98433;-70
2021/01/06 02:43:34;;;;;;;13.30;11.48;;;;;;;5.57;69.36;99646.84;4925834;28;96914;-70
2021/01/06 02:46:00;;;;;;;15.07;11.82;;;;;;;5.34;70.10;99637.41;4935139;28;96660;-70
2021/01/06 02:48:27;;;;;;;14.07;11.18;;;;;;;5.55;68.94;99646.06;4924947;28;98455;-69
2021/01/06 02:50:57;;;;;;;15.20;11.70;;;;;;;5.51;69.53;99655.69;4901165;28;98431;-69
2021/01/06 02:53:28;;;;;;;12.40;10.23;;;;;;;5.60;68.72;99646.75;4901565;28;96877;-68
2021/01/06 02:55:54;;;;;;;13.27;10.65;;;;;;;5.71;67.74;99648.00;4918016;28;99425;-68
2021/01/06 02:58:21;;;;;;;12.23;9.98;;;;;;;5.48;69.08;99646.28;4935237;28;98484;-69
2021/01/06 03:00:50;;;;;;;11.90;9.35;;;;;;;5.40;69.48;99657.84;4930056;28;98629;-69
2021/01/06 03:03:17;;;;;;;12.02;9.48;;;;;;;5.47;68.70;99647.19;4934070;28;96743;-68
2021/01/06 03:05:48;;;;;;;12.48;10.45;;;;;;;5.51;68.71;99630.66;4921901;28;100675;-69
2021/01/06 03:08:16;;;;;;;11.05;9.75;;;;;;;5.44;68.65;99625.81;4921048;28;98684;-69
2021/01/06 03:10:42;;;;;;;12.38;9.90;;;;;;;5.12;69.86;99622.72;4953158;28;98371;-69
2021/01/06 03:13:08;;;;;;;12.13;10.23;;;;;;;5.22;69.44;99613.72;4953573;28;96583;-69
2021/01/06 03:15:35;;;;;;;11.95;9.93;;;;;;;5.24;69.24;99616.22;4952635;28;97718;-69
2021/01/06 03:18:01;;;;;;;13.00;9.68;;;;;;;5.13;69.61;99621.81;4937220;28;98695;-69
2021/01/06 03:20:36;;;;;;;12.65;10.20;;;;;;;5.03;69.37;99627.38;4934731;28;98581;-68
2021/01/06 03:23:06;;;;;;;12.38;9.98;;;;;;;5.14;69.00;99628.66;4935673;28;96794;-68
2021/01/06 03:25:34;;;;;;;12.38;10.20;;;;;;;4.82;70.42;99632.41;4920279;28;96997;-68
2021/01/06 03:28:00;;;;;;;12.98;10.85;;;;;;;4.79;70.69;99631.69;4917072;28;98602;-68
2021/01/06 03:30:27;;;;;;;12.68;11.23;;;;;;;4.93;70.14;99629.44;4919129;28;98449;-67
2021/01/06 03:33:07;;;;;;;14.85;11.35;;;;;;;4.83;70.00;99638.44;4934520;28;97871;-68
2021/01/06 03:35:36;;;;;;;14.40;11.32;;;;;;;4.82;70.40;99639.31;4954173;28;96811;-66
2021/01/06 03:38:58;;;;;;;13.18;10.23;;;;;;;4.99;69.34;99653.31;4917727;28;98580;-68
2021/01/06 03:41:25;;;;;;;12.77;10.70;;;;;;;4.99;69.24;99645.56;4911959;28;98602;-68
2021/01/06 03:43:55;;;;;;;12.68;10.48;;;;;;;4.99;69.64;99644.72;4905798;28;96814;-68
2021/01/06 03:46:45;;;;;;;12.15;10.15;;;;;;;5.16;68.75;99650.09;4931961;28;96813;-68
2021/01/06 03:49:57;;;;;;;13.07;10.73;;;;;;;5.23;68.77;99651.56;4901547;28;98498;-68
2021/01/06 03:52:25;;;;;;;13.65;10.75;;;;;;;5.20;68.78;99646.50;4909800;28;98649;-69
2021/01/06 03:55:02;;;;;;;14.48;11.95;;;;;;;5.16;68.79;99642.34;4936186;28;96952;-69
2021/01/06 03:57:29;;;;;;;13.13;11.15;;;;;;;5.22;68.42;99652.47;4919834;28;97752;-69
2021/01/06 03:59:56;;;;;;;13.07;11.40;;;;;;;5.37;67.56;99657.94;4900377;28;98716;-69
2021/01/06 04:02:42;;;;;;;13.30;10.45;;;;;;;5.12;69.07;99658.03;4900474;28;98746;-69
2021/01/06 04:05:10;;;;;;;14.80;12.07;;;;;;;5.02;69.74;99648.94;4934170;28;96790;-68
2021/01/06 04:07:48;;;;;;;12.75;10.43;;;;;;;5.15;69.02;99651.00;4934550;28;96921;-68
2021/01/06 04:10:23;;;;;;;15.93;10.40;;;;;;;5.08;69.44;99651.28;4905756;28;98698;-67
2021/01/06 04:12:49;;;;;;;14.98;12.55;;;;;;;5.00;69.56;99646.41;4919749;28;98705;-68
2021/01/06 04:15:16;;;;;;;13.27;10.65;;;;;;;5.12;68.97;99645.13;4953469;28;97023;-67
2021/01/06 04:17:44;;;;;;;12.98;9.55;;;;;;;5.28;68.36;99646.22;4954737;28;96696;-68
2021/01/06 04:20:14;;;;;;;14.38;11.23;;;;;;;5.05;69.37;99646.22;4936802;28;97354;-67
2021/01/06 04:22:45;;;;;;;13.30;10.75;;;;;;;4.85;69.85;99652.16;4954062;28;98492;-68
2021/01/06 04:25:13;;;;;;;13.48;10.63;;;;;;;4.80;70.33;99656.63;4945850;28;100114;-68
2021/01/06 04:27:40;;;;;;;12.00;10.10;;;;;;;4.92;70.38;99663.94;4952796;28;96631;-67
2021/01/06 04:30:09;;;;;;;13.48;10.07;;;;;;;4.87;70.37;99661.50;4935134;28;98483;-68
2021/01/06 04:32:36;;;;;;;13.65;9.80;;;;;;;4.97;70.05;99669.78;4938178;28;98960;-69
2021/01/06 04:35:06;;;;;;;13.10;9.80;;;;;;;5.02;69.32;99667.88;4934398;28;96842;-68
2021/01/06 04:37:33;;;;;;;12.93;8.77;;;;;;;4.97;69.93;99672.34;4951995;28;96884;-68
2021/01/06 04:39:59;;;;;;;12.57;10.38;;;;;;;4.80;71.09;99677.28;4951166;28;98586;-68
2021/01/06 04:42:25;;;;;;;11.98;9.68;;;;;;;5.05;69.46;99688.41;4941915;28;97464;-68
2021/01/06 04:44:58;;;;;;;16.90;11.82;;;;;;;5.07;69.55;99691.78;4914961;28;97436;-68
2021/01/06 04:47:37;;;;;;;10.90;8.48;;;;;;;5.30;69.01;99688.34;4912441;28;97451;-68
2021/01/06 04:50:10;;;;;;;13.00;9.90;;;;;;;5.33;68.98;99688.25;4949865;28;98520;-68
2021/01/06 04:52:57;;;;;;;12.55;10.40;;;;;;;5.05;70.25;99697.91;4932367;28;98616;-68
2021/01/06 04:55:41;;;;;;;13.93;10.32;;;;;;;5.11;70.67;99692.50;4901946;28;96572;-68
2021/01/06 04:58:26;;;;;;;13.23;11.43;;;;;;;5.25;70.03;99691.09;4939547;28;97115;-68
2021/01/06 05:01:15;;;;;;;13.68;10.75;;;;;;;5.18;70.58;99700.00;4952639;28;98404;-66
2021/01/06 05:03:49;;;;;;;14.70;11.43;;;;;;;5.18;70.44;99697.41;4924323;28;99072;-68
2021/01/06 05:06:48;;;;;;;12.55;10.15;;;;;;;5.16;71.14;99696.59;4901801;28;96675;-68
2021/01/06 05:09:21;;;;;;;15.30;11.93;;;;;;;5.03;71.96;99700.53;4930125;28;97069;-68
2021/01/06 05:12:08;;;;;;;13.68;11.98;;;;;;;5.15;71.73;99691.50;4939750;28;98673;-68
2021/01/06 05:14:42;;;;;;;16.63;10.88;;;;;;;5.17;71.83;99695.72;4946876;28;98821;-69
2021/01/06 05:17:09;;;;;;;14.55;11.43;;;;;;;5.24;71.12;99704.09;4918665;28;96530;-69
2021/01/06 05:19:35;;;;;;;20.38;13.77;;;;;;;5.36;71.28;99705.38;4951175;28;96656;-68
2021/01/06 05:22:03;;;;;;;16.08;12.55;;;;;;;5.29;71.08;99711.69;4928584;28;98495;-68
2021/01/06 05:24:37;;;;;;;14.38;11.82;;;;;;;5.20;71.69;99721.44;4905577;28;98970;-68
2021/01/06 05:27:12;;;;;;;15.55;12.18;;;;;;;5.50;70.51;99723.81;4913253;28;96914;-69
2021/01/06 05:29:48;;;;;;;14.40;12.02;;;;;;;5.42;70.78;99728.41;4893780;28;96830;-69
2021/01/06 05:32:17;;;;;;;21.25;14.40;;;;;;;5.55;69.98;99734.81;4907439;28;99475;-68
2021/01/06 05:34:45;;;;;;;15.85;11.93;;;;;;;5.43;71.25;99743.00;4892446;28;97623;-68
2021/01/06 05:37:15;;;;;;;15.80;12.13;;;;;;;5.43;70.76;99740.41;4893447;28;96601;-68
2021/01/06 05:39:41;;;;;;;17.48;12.00;;;;;;;5.51;71.11;99746.16;4894542;28;96694;-68
2021/01/06 05:42:27;;;;;;;17.50;13.40;;;;;;;5.45;70.58;99748.97;4892673;28;98648;-68
2021/01/06 05:44:56;;;;;;;14.82;12.23;;;;;;;5.46;70.65;99751.50;4907384;28;98453;-67
2021/01/06 05:47:28;;;;;;;19.52;13.13;;;;;;;5.45;71.16;99755.00;4912409;28;96746;-68
2021/01/06 05:49:54;;;;;;;19.25;15.63;;;;;;;5.51;70.88;99748.75;4913105;28;97148;-68
2021/01/06 05:52:21;;;;;;;23.60;15.70;;;;;;;5.53;70.68;99752.09;4914913;28;98738;-68
2021/01/06 05:54:52;;;;;;;18.13;14.35;;;;;;;5.57;71.20;99752.84;4930221;28;98552;-68
2021/01/06 05:57:31;;;;;;;17.13;13.70;;;;;;;5.62;70.51;99756.09;4914513;28;97217;-68
2021/01/06 06:00:36;;;;;;;19.60;14.80;;;;;;;5.57;70.81;99752.84;4916465;28;97268;-66
2021/01/06 06:03:33;;;;;;;17.97;14.30;;;;;;;5.60;71.08;99753.59;4904019;28;98442;-66
2021/01/06 06:06:37;;;;;;;16.90;13.15;;;;;;;5.63;71.08;99753.44;4916440;28;98514;-67
2021/01/06 06:09:33;;;;;;;18.20;15.10;;;;;;;5.58;70.77;99754.53;4901022;28;97777;-69
2021/01/06 06:12:18;;;;;;;23.58;18.13;;;;;;;5.69;70.58;99755.81;4905051;28;96450;-68
2021/01/06 06:15:31;;;;;;;21.48;16.05;;;;;;;5.64;70.83;99760.31;4912800;28;98414;-69
2021/01/06 06:18:09;;;;;;;20.02;14.80;;;;;;;5.74;70.19;99764.22;4910360;28;98901;-68
2021/01/06 06:20:56;;;;;;;19.85;13.32;;;;;;;5.78;70.50;99765.81;4911897;28;97365;-68
2021/01/06 06:23:32;;;;;;;18.23;14.20;;;;;;;5.76;70.55;99765.03;4920879;28;96851;-69
2021/01/06 06:26:31;;;;;;;18.13;14.18;;;;;;;5.63;70.79;99768.97;4944258;28;98524;-69
2021/01/06 06:29:30;;;;;;;19.65;14.52;;;;;;;5.58;71.19;99773.47;4945599;28;98724;-69
2021/01/06 06:31:57;;;;;;;21.60;15.70;;;;;;;5.53;71.56;99775.38;4933312;28;96680;-73
2021/01/06 06:34:38;;;;;;;21.45;15.60;;;;;;;5.68;71.15;99777.41;4934277;28;97189;-72
2021/01/06 06:37:14;;;;;;;22.25;15.50;;;;;;;5.79;70.23;99790.78;4910688;28;98731;-74
2021/01/06 06:40:03;;;;;;;19.90;14.40;;;;;;;5.72;70.88;99784.16;4941906;28;98500;-73
2021/01/06 06:42:35;;;;;;;18.88;13.93;;;;;;;5.68;70.84;99792.91;4928285;28;96580;-73
2021/01/06 06:45:20;;;;;;;18.88;15.20;;;;;;;5.75;70.24;99804.75;4923534;28;97054;-73
2021/01/06 06:47:49;;;;;;;18.13;13.80;;;;;;;5.75;70.78;99799.56;4942908;28;98402;-73
2021/01/06 06:50:24;;;;;;;19.30;14.68;;;;;;;5.72;71.05;99799.66;4942366;28;98398;-72
2021/01/06 06:53:00;;;;;;;20.30;15.27;;;;;;;5.85;69.93;99799.19;4949716;28;97229;-73
2021/01/06 06:55:49;;;;;;;18.30;14.00;;;;;;;5.77;70.61;99800.34;4927340;28;97207;-73
2021/01/06 06:58:37;;;;;;;17.48;11.68;;;;;;;5.64;70.49;99800.84;4950028;28;98574;-73
2021/01/06 07:01:07;;;;;;;18.60;13.68;;;;;;;5.57;71.17;99794.22;4945565;28;98573;-73
2021/01/06 07:03:34;;;;;;;16.35;12.13;;;;;;;5.66;70.68;99799.91;4930751;28;96721;-72
2021/01/06 07:06:01;;;;;;;17.30;12.63;;;;;;;5.56;70.50;99797.72;4926458;28;97011;-73
2021/01/06 07:08:42;;;;;;;18.30;13.18;;;;;;;5.65;70.38;99800.81;4930199;28;98588;-72
2021/01/06 07:11:25;;;;;;;13.02;11.13;;;;;;;5.73;69.75;99806.53;4925944;28;98441;-71
2021/01/06 07:14:02;;;;;;;15.30;11.60;;;;;;;5.70;69.55;99811.81;4932837;28;97928;-73
2021/01/06 07:16:53;;;;;;;17.23;11.45;;;;;;;5.77;69.09;99821.03;4930785;28;97099;-73
2021/01/06 07:19:23;;;;;;;17.77;11.70;;;;;;;5.79;69.19;99821.81;4919172;28;98827;-73
2021/01/06 07:21:53;;;;;;;15.13;12.15;;;;;;;5.66;69.57;99825.75;4933566;28;98466;-68
2021/01/06 07:24:21;;;;;;;15.60;11.90;;;;;;;5.77;69.38;99827.94;4912967;28;101741;-71
2021/01/06 07:27:00;;;;;;;15.63;12.38;;;;;;;5.67;69.76;99824.00;4942637;28;97203;-71
2021/01/06 07:29:32;;;;;;;17.25;12.90;;;;;;;5.57;70.29;99825.25;4947576;28;98639;-68
2021/01/06 07:32:05;;;;;;;14.60;10.60;;;;;;;5.65;70.42;99831.00;4932295;28;98617;-68
2021/01/06 07:34:51;;;;;;;19.42;13.70;;;;;;;5.49;71.09;99836.72;4913395;28;97106;-68
2021/01/06 07:37:43;;;;;;;17.40;13.10;;;;;;;5.53;70.45;99829.66;4933913;28;97112;-67
2021/01/06 07:40:25;;;;;;;18.48;13.02;;;;;;;5.62;70.39;99836.25;4932471;28;98641;-68
2021/01/06 07:42:52;;;;;;;17.65;12.82;;;;;;;5.71;70.37;99841.94;4933163;28;98736;-67
2021/01/06 07:45:21;;;;;;;17.88;12.75;;;;;;;5.77;70.49;99854.66;4952123;28;96703;-68
2021/01/06 07:48:00;;;;;;;20.42;13.77;;;;;;;5.86;70.16;99868.13;4953337;28;96569;-67
2021/01/06 07:50:26;;;;;;;16.98;11.85;;;;;;;5.99;69.26;99883.19;4947054;28;98546;-68
2021/01/06 07:53:02;;;;;;;16.38;12.52;;;;;;;6.06;70.01;99895.91;4927492;28;98453;-68
2021/01/06 07:55:42;;;;;;;16.17;12.35;;;;;;;6.02;69.57;99893.44;4920453;28;97871;-68
2021/01/06 07:58:17;;;;;;;14.90;11.18;;;;;;;6.06;69.70;99901.91;4937982;28;96873;-68
2021/01/06 08:00:56;;;;;;;15.15;10.32;;;;;;;6.02;69.29;99896.03;4937840;28;98077;-69
2021/01/06 08:03:50;;;;;;;16.80;13.70;;;;;;;5.94;69.99;99902.38;4933863;28;98609;-69
2021/01/06 08:06:20;;;;;;;13.85;10.68;;;;;;;6.12;69.28;99901.69;4951264;28;97241;-69
2021/01/06 08:08:50;;;;;;;17.02;11.98;;;;;;;6.13;69.31;99906.00;4930783;28;97219;-68
2021/01/06 08:11:18;;;;;;;15.80;11.65;;;;;;;6.15;69.45;99896.41;4933310;28;98751;-68
2021/01/06 08:13:48;;;;;;;13.73;10.80;;;;;;;6.11;69.10;99900.00;4932820;28;98444;-74
2021/01/06 08:16:27;;;;;;;15.82;11.75;;;;;;;5.92;69.41;99899.00;4951003;28;96967;-74
2021/01/06 08:19:19;;;;;;;13.88;11.88;;;;;;;5.97;69.08;99887.59;4929940;28;98018;-76
2021/01/06 08:21:53;;;;;;;14.10;10.55;;;;;;;6.06;68.63;99891.56;4947675;28;98490;-75
2021/01/06 08:24:20;;;;;;;15.18;10.88;;;;;;;6.02;68.54;99890.84;4930649;28;98781;-76
2021/01/06 08:26:54;;;;;;;11.88;10.23;;;;;;;6.14;68.23;99897.31;4945505;28;97048;-68
2021/01/06 08:29:27;;;;;;;14.02;10.50;;;;;;;6.26;68.66;99904.63;4933178;28;97084;-70
2021/01/06 08:31:58;;;;;;;14.05;10.43;;;;;;;6.27;68.86;99906.28;4948320;28;98462;-72
2021/01/06 08:34:38;;;;;;;14.30;10.93;;;;;;;6.47;68.33;99908.13;4930557;28;98303;-67
2021/01/06 08:37:10;;;;;;;12.70;10.77;;;;;;;6.61;67.91;99906.78;4950071;28;97229;-63
2021/01/06 08:39:39;;;;;;;11.13;9.63;;;;;;;6.71;68.03;99919.31;4931827;28;97067;-69
2021/01/06 08:42:11;;;;;;;11.45;9.30;;;;;;;6.50;68.07;99920.13;4946248;28;98499;-72
2021/01/06 08:44:56;;;;;;;10.73;9.25;;;;;;;6.57;67.21;99922.41;4949776;28;98373;-71
2021/01/06 08:47:31;;;;;;;12.50;9.30;;;;;;;6.59;67.24;99931.88;4868253;28;97145;-71
2021/01/06 08:50:16;;;;;;;10.75;8.10;;;;;;;6.69;66.42;99941.81;4944299;28;97120;-73
2021/01/06 08:52:49;;;;;;;12.15;8.95;;;;;;;6.85;66.72;99939.47;4948395;28;98839;-72
2021/01/06 08:55:24;;;;;;;11.60;9.38;;;;;;;6.83;67.20;99941.28;4949763;28;98876;-73
2021/01/06 08:58:00;;;;;;;11.63;9.73;;;;;;;6.30;66.09;99937.25;4924421;28;96694;-70
2021/01/06 09:00:36;;;;;;;14.40;9.85;;;;;;;6.41;67.87;99943.78;4947475;28;96627;-71
2021/01/06 09:03:22;;;;;;;13.77;9.52;;;;;;;6.49;66.25;99952.09;4940616;28;98123;-71
2021/01/06 09:05:48;;;;;;;12.52;9.25;;;;;;;6.28;68.19;99940.78;4914159;28;98524;-72
2021/01/06 09:08:38;;;;;;;12.00;8.90;;;;;;;6.53;66.79;99948.47;4948587;28;97115;-69
2021/01/06 09:11:15;;;;;;;11.90;9.48;;;;;;;6.64;66.29;99951.50;4933557;28;96813;-73
2021/01/06 09:14:00;;;;;;;12.85;10.73;;;;;;;6.44;67.23;99959.19;4921198;28;98701;-70
2021/01/06 09:16:38;;;;;;;13.75;10.63;;;;;;;6.62;65.65;99957.66;4949389;28;98470;-73
2021/01/06 09:19:17;;;;;;;11.35;9.45;;;;;;;6.40;66.89;99960.22;4927937;28;97976;-72
2021/01/06 09:21:43;;;;;;;13.85;10.00;;;;;;;6.51;65.74;99965.84;4948672;28;96709;-71
2021/01/06 09:24:10;;;;;;;12.73;10.57;;;;;;;6.59;65.77;99966.38;4921893;28;99133;-73
2021/01/06 09:26:38;;;;;;;13.27;11.10;;;;;;;6.41;67.24;99964.50;4916141;28;98621;-73
2021/01/06 09:29:06;;;;;;;12.95;10.02;;;;;;;6.50;66.48;99975.34;4929153;28;97365;-72
2021/01/06 09:31:48;;;;;;;13.25;11.00;;;;;;;6.52;66.44;99977.88;4918514;28;96897;-73
2021/01/06 09:34:20;;;;;;;12.38;10.30;;;;;;;6.56;66.53;99971.69;4912278;28;97568;-72
2021/01/06 09:36:47;;;;;;;10.85;9.35;;;;;;;6.48;67.12;99974.53;4917645;28;99104;-73
2021/01/06 09:39:16;;;;;;;13.05;9.63;;;;;;;6.67;66.07;99979.91;4934944;28;96723;-72
2021/01/06 09:41:43;;;;;;;11.30;9.77;;;;;;;6.63;66.68;99975.72;4917207;28;96833;-74
2021/01/06 09:44:09;;;;;;;11.25;9.05;;;;;;;6.66;66.42;99967.84;4920547;28;98638;-70
2021/01/06 09:46:50;;;;;;;14.15;10.07;;;;;;;6.57;66.41;99976.81;4930213;28;97612;-68
2021/01/06 09:49:19;;;;;;;11.90;9.70;;;;;;;6.51;67.71;99976.19;4945320;28;96785;-65
2021/01/06 09:51:48;;;;;;;11.85;10.48;;;;;;;6.52;66.96;99970.09;4921278;28;97095;-61
2021/01/06 09:54:14;;;;;;;12.07;9.82;;;;;;;6.19;67.47;99962.69;4914198;28;98846;-65
2021/01/06 09:56:41;;;;;;;13.35;11.95;;;;;;;6.30;67.64;99963.16;4927183;28;98606;-65
2021/01/06 09:59:20;;;;;;;12.10;9.15;;;;;;;6.56;67.09;99963.91;4925470;28;97830;-65
2021/01/06 10:02:17;;;;;;;14.32;12.23;;;;;;;6.36;67.23;99966.41;4926310;28;96592;-67
2021/01/06 10:04:43;;;;;;;13.32;11.15;;;;;;;6.66;68.03;99964.38;4947850;28;98748;-67
2021/01/06 10:07:32;;;;;;;13.65;10.52;;;;;;;6.58;67.41;99959.50;4934916;28;98835;-67
2021/01/06 10:10:02;;;;;;;13.13;10.80;;;;;;;6.69;67.16;99964.28;4946866;28;97334;-65
2021/01/06 10:12:45;;;;;;;13.68;11.50;;;;;;;6.68;66.67;99968.63;4934671;28;97144;-63
2021/01/06 10:15:15;;;;;;;12.23;9.77;;;;;;;6.53;67.54;99959.69;4934219;28;98830;-66
2021/01/06 10:18:00;;;;;;;12.15;10.38;;;;;;;6.51;67.54;99955.47;4949759;28;98653;-68
2021/01/06 10:20:38;;;;;;;13.07;11.10;;;;;;;6.65;66.63;99948.00;4914752;28;97068;-66
2021/01/06 10:23:44;;;;;;;13.07;11.45;;;;;;;6.74;66.91;99950.25;4932264;28;97216;-65
2021/01/06 10:26:25;;;;;;;12.85;10.98;;;;;;;6.73;66.97;99938.19;4895519;28;98694;-68
2021/01/06 10:28:52;;;;;;;11.85;10.20;;;;;;;6.57;66.99;99939.69;4931597;28;97443;-68
2021/01/06 10:31:23;;;;;;;12.10;10.43;;;;;;;6.60;67.13;99933.53;4930070;28;97167;-68
2021/01/06 10:34:09;;;;;;;13.88;11.00;;;;;;;6.63;67.65;99936.03;4940600;28;96988;-66
2021/01/06 10:36:59;;;;;;;13.68;11.50;;;;;;;6.87;67.00;99941.97;4944515;28;98416;-67
2021/01/06 10:39:35;;;;;;;12.52;10.68;;;;;;;6.76;67.79;99945.84;4940385;28;98721;-67
2021/01/06 10:42:04;;;;;;;14.82;12.60;;;;;;;6.88;67.79;99949.72;4917136;28;96972;-67
2021/01/06 10:44:34;;;;;;;16.08;11.57;;;;;;;7.07;66.81;99950.66;4943498;28;97039;-65
2021/01/06 10:47:22;;;;;;;16.38;13.13;;;;;;;7.11;67.21;99946.19;4946943;28;98620;-67
2021/01/06 10:49:53;;;;;;;13.07;11.13;;;;;;;7.14;65.96;99946.09;4950435;28;98428;-64
2021/01/06 10:52:21;;;;;;;13.70;11.63;;;;;;;6.99;66.27;99951.88;4947756;28;97077;-65
2021/01/06 10:54:50;;;;;;;18.63;15.52;;;;;;;7.15;66.71;99947.78;4944345;28;97209;-65
2021/01/06 10:57:31;;;;;;;21.33;18.52;;;;;;;7.24;66.49;99946.53;4943014;28;98790;-67
2021/01/06 11:00:16;;;;;;;19.98;17.27;;;;;;;7.32;66.24;99950.50;4946951;28;98482;-66
2021/01/06 11:03:21;;;;;;;17.80;14.45;;;;;;;7.24;66.10;99947.38;4950811;28;97588;-65
2021/01/06 11:05:53;;;;;;;16.40;13.75;;;;;;;7.22;66.24;99951.78;4946035;28;96845;-65
2021/01/06 11:08:52;;;;;;;16.63;14.25;;;;;;;7.15;66.76;99942.59;4948504;28;98677;-66
2021/01/06 11:11:30;;;;;;;22.83;18.00;;;;;;;6.90;66.73;99934.94;4922228;28;98745;-65
2021/01/06 11:14:53;;;;;;;43.35;24.30;;;;;;;6.99;66.43;99933.75;4934916;28;97158;-66
2021/01/06 11:17:46;;;;;;;18.45;13.23;;;;;;;6.96;66.97;99933.84;4872375;28;96740;-74
2021/01/06 11:20:37;;;;;;;14.27;12.13;;;;;;;7.04;66.26;99929.22;4868040;28;98391;-74
2021/01/06 11:23:43;;;;;;;15.68;12.85;;;;;;;7.09;66.32;99932.47;4930302;28;98807;-73
2021/01/06 11:26:27;;;;;;;19.15;15.63;;;;;;;6.98;66.69;99925.13;4892161;28;96681;-73
2021/01/06 11:29:11;;;;;;;16.60;13.07;;;;;;;7.05;66.55;99936.09;4892477;28;96804;-68
2021/01/06 11:31:42;;;;;;;25.53;22.43;;;;;;;6.72;67.22;99926.16;4931526;28;99459;-66
2021/01/06 11:34:09;;;;;;;40.30;36.40;;;;;;;6.75;67.73;99923.44;4952523;28;98896;-68
2021/01/06 11:36:38;;;;;;;28.38;25.35;;;;;;;6.85;67.33;99923.91;4953749;28;96969;-70
2021/01/06 11:39:07;;;;;;;16.83;13.45;;;;;;;6.65;68.33;99921.25;4935347;28;97143;-72
2021/01/06 11:41:33;;;;;;;15.85;13.50;;;;;;;6.98;67.78;99924.28;4929483;28;98599;-72
2021/01/06 11:44:17;;;;;;;16.60;13.00;;;;;;;6.98;67.95;99919.09;4952219;28;98379;-72
2021/01/06 11:47:02;;;;;;;15.30;13.02;;;;;;;7.13;67.82;99918.47;4948645;28;96650;-73
2021/01/06 11:49:49;;;;;;;14.10;12.55;;;;;;;6.97;67.95;99923.41;4947243;28;96884;-74
2021/01/06 11:52:18;;;;;;;16.15;12.48;;;;;;;7.11;66.88;99920.28;4946348;28;97693;-73
2021/01/06 11:54:47;;;;;;;17.08;14.50;;;;;;;7.00;68.09;99917.28;4945290;28;98452;-74
2021/01/06 11:57:20;;;;;;;14.57;11.95;;;;;;;7.26;67.27;99924.00;4936168;28;96561;-74
2021/01/06 11:59:50;;;;;;;14.88;10.95;;;;;;;7.18;67.57;99916.53;4919013;28;97025;-73
2021/01/06 12:02:32;;;;;;;12.57;10.18;;;;;;;7.20;66.61;99909.53;4931055;28;98464;-72